sensor_id;sensor_type;location;lat;lon;timestamp;P1;durP1;ratioP1;P2;durP2;ratioP2
33501;SDS011;22396;51.070;4.974;2023-07-13T00:02:07;3.03;;;0.90;;
33501;SDS011;22396;51.070;4.974;2023-07-13T00:04:32;1.83;;;0.90;;
33501;SDS011;22396;51.070;4.974;2023-07-13T00:06:58;2.25;;;0.95;;
33501;SDS011;22396;51.070;4.974;2023-07-13T00:09:23;2.65;;;0.95;;
33501;SDS011;22396;51.070;4.974;2023-07-13T00:11:52;3.80;;;0.95;;
33501;SDS011;22396;51.070;4.974;2023-07-13T00:14:20;4.57;;;0.98;;
33501;SDS011;22396;51.070;4.974;2023-07-13T00:16:45;2.70;;;0.93;;
33501;SDS011;22396;51.070;4.974;2023-07-13T00:19:11;6.00;;;1.05;;
33501;SDS011;22396;51.070;4.974;2023-07-13T00:21:38;3.83;;;1.33;;
33501;SDS011;22396;51.070;4.974;2023-07-13T00:24:06;3.03;;;0.65;;
33501;SDS011;22396;51.070;4.974;2023-07-13T00:26:32;5.75;;;0.90;;
33501;SDS011;22396;51.070;4.974;2023-07-13T00:28:58;6.35;;;0.80;;
33501;SDS011;22396;51.070;4.974;2023-07-13T00:31:24;4.45;;;0.60;;
33501;SDS011;22396;51.070;4.974;2023-07-13T00:33:49;3.83;;;0.85;;
33501;SDS011;22396;51.070;4.974;2023-07-13T00:36:14;1.50;;;0.70;;
33501;SDS011;22396;51.070;4.974;2023-07-13T00:38:40;1.88;;;0.70;;
33501;SDS011;22396;51.070;4.974;2023-07-13T00:41:05;6.75;;;0.90;;
33501;SDS011;22396;51.070;4.974;2023-07-13T00:43:31;3.80;;;1.00;;
33501;SDS011;22396;51.070;4.974;2023-07-13T00:48:55;5.20;;;1.00;;
33501;SDS011;22396;51.070;4.974;2023-07-13T00:51:26;6.43;;;2.13;;
33501;SDS011;22396;51.070;4.974;2023-07-13T00:53:53;3.10;;;1.15;;
33501;SDS011;22396;51.070;4.974;2023-07-13T00:56:19;5.40;;;0.95;;
33501;SDS011;22396;51.070;4.974;2023-07-13T00:58:44;6.13;;;1.00;;
33501;SDS011;22396;51.070;4.974;2023-07-13T01:01:13;5.47;;;1.02;;
33501;SDS011;22396;51.070;4.974;2023-07-13T01:03:38;5.57;;;1.00;;
33501;SDS011;22396;51.070;4.974;2023-07-13T01:06:05;4.40;;;1.00;;
33501;SDS011;22396;51.070;4.974;2023-07-13T01:08:31;4.20;;;1.13;;
33501;SDS011;22396;51.070;4.974;2023-07-13T01:10:56;5.03;;;0.90;;
33501;SDS011;22396;51.070;4.974;2023-07-13T01:13:23;3.35;;;0.85;;
33501;SDS011;22396;51.070;4.974;2023-07-13T01:15:49;2.55;;;0.93;;
33501;SDS011;22396;51.070;4.974;2023-07-13T01:18:25;7.00;;;1.15;;
33501;SDS011;22396;51.070;4.974;2023-07-13T01:23:16;4.40;;;1.10;;
33501;SDS011;22396;51.070;4.974;2023-07-13T01:25:44;2.83;;;1.08;;
33501;SDS011;22396;51.070;4.974;2023-07-13T01:28:09;2.25;;;0.90;;
33501;SDS011;22396;51.070;4.974;2023-07-13T01:30:38;3.95;;;1.10;;
33501;SDS011;22396;51.070;4.974;2023-07-13T01:33:05;2.45;;;0.88;;
33501;SDS011;22396;51.070;4.974;2023-07-13T01:35:32;5.22;;;1.27;;
33501;SDS011;22396;51.070;4.974;2023-07-13T01:38:00;2.70;;;0.90;;
33501;SDS011;22396;51.070;4.974;2023-07-13T01:40:26;6.82;;;1.20;;
33501;SDS011;22396;51.070;4.974;2023-07-13T01:42:52;6.28;;;1.25;;
33501;SDS011;22396;51.070;4.974;2023-07-13T01:45:17;2.67;;;1.05;;
33501;SDS011;22396;51.070;4.974;2023-07-13T01:47:43;3.28;;;1.20;;
33501;SDS011;22396;51.070;4.974;2023-07-13T01:50:08;4.57;;;1.13;;
33501;SDS011;22396;51.070;4.974;2023-07-13T01:52:33;3.70;;;0.90;;
33501;SDS011;22396;51.070;4.974;2023-07-13T01:54:59;3.72;;;1.25;;
33501;SDS011;22396;51.070;4.974;2023-07-13T01:57:26;5.05;;;1.20;;
33501;SDS011;22396;51.070;4.974;2023-07-13T01:59:52;5.18;;;1.13;;
33501;SDS011;22396;51.070;4.974;2023-07-13T02:02:17;4.72;;;1.38;;
33501;SDS011;22396;51.070;4.974;2023-07-13T02:04:42;4.25;;;1.25;;
33501;SDS011;22396;51.070;4.974;2023-07-13T02:07:08;2.08;;;1.02;;
33501;SDS011;22396;51.070;4.974;2023-07-13T02:09:33;4.75;;;1.10;;
33501;SDS011;22396;51.070;4.974;2023-07-13T02:11:59;4.50;;;1.20;;
33501;SDS011;22396;51.070;4.974;2023-07-13T02:14:24;2.63;;;1.30;;
33501;SDS011;22396;51.070;4.974;2023-07-13T02:16:49;8.88;;;1.30;;
33501;SDS011;22396;51.070;4.974;2023-07-13T02:19:15;3.97;;;1.20;;
33501;SDS011;22396;51.070;4.974;2023-07-13T02:21:40;3.33;;;1.23;;
33501;SDS011;22396;51.070;4.974;2023-07-13T02:24:05;6.78;;;1.33;;
33501;SDS011;22396;51.070;4.974;2023-07-13T02:26:31;5.32;;;1.65;;
33501;SDS011;22396;51.070;4.974;2023-07-13T02:28:56;8.45;;;1.42;;
33501;SDS011;22396;51.070;4.974;2023-07-13T02:31:21;5.07;;;1.20;;
33501;SDS011;22396;51.070;4.974;2023-07-13T02:33:46;12.38;;;1.55;;
33501;SDS011;22396;51.070;4.974;2023-07-13T02:36:12;3.35;;;0.90;;
33501;SDS011;22396;51.070;4.974;2023-07-13T02:38:37;6.72;;;1.25;;
33501;SDS011;22396;51.070;4.974;2023-07-13T02:41:03;4.25;;;1.10;;
33501;SDS011;22396;51.070;4.974;2023-07-13T02:43:28;2.97;;;1.13;;
33501;SDS011;22396;51.070;4.974;2023-07-13T02:45:54;3.83;;;1.15;;
33501;SDS011;22396;51.070;4.974;2023-07-13T02:48:20;4.35;;;1.00;;
33501;SDS011;22396;51.070;4.974;2023-07-13T02:50:45;5.25;;;1.10;;
33501;SDS011;22396;51.070;4.974;2023-07-13T02:53:10;3.47;;;1.30;;
33501;SDS011;22396;51.070;4.974;2023-07-13T02:55:35;8.00;;;1.65;;
33501;SDS011;22396;51.070;4.974;2023-07-13T02:58:01;4.15;;;1.08;;
33501;SDS011;22396;51.070;4.974;2023-07-13T03:00:26;3.25;;;1.30;;
33501;SDS011;22396;51.070;4.974;2023-07-13T03:03:00;7.68;;;1.40;;
33501;SDS011;22396;51.070;4.974;2023-07-13T03:05:25;6.13;;;1.40;;
33501;SDS011;22396;51.070;4.974;2023-07-13T03:07:50;4.18;;;1.42;;
33501;SDS011;22396;51.070;4.974;2023-07-13T03:10:16;4.13;;;1.40;;
33501;SDS011;22396;51.070;4.974;2023-07-13T03:12:41;5.70;;;1.60;;
33501;SDS011;22396;51.070;4.974;2023-07-13T03:15:06;5.28;;;1.15;;
33501;SDS011;22396;51.070;4.974;2023-07-13T03:17:32;6.57;;;1.67;;
33501;SDS011;22396;51.070;4.974;2023-07-13T03:19:57;6.40;;;1.50;;
33501;SDS011;22396;51.070;4.974;2023-07-13T03:22:22;10.88;;;1.65;;
33501;SDS011;22396;51.070;4.974;2023-07-13T03:24:48;5.05;;;1.50;;
33501;SDS011;22396;51.070;4.974;2023-07-13T03:27:13;5.65;;;1.35;;
33501;SDS011;22396;51.070;4.974;2023-07-13T03:29:38;7.82;;;1.50;;
33501;SDS011;22396;51.070;4.974;2023-07-13T03:32:04;3.90;;;1.10;;
33501;SDS011;22396;51.070;4.974;2023-07-13T03:34:29;6.75;;;1.50;;
33501;SDS011;22396;51.070;4.974;2023-07-13T03:36:58;4.63;;;1.52;;
33501;SDS011;22396;51.070;4.974;2023-07-13T03:39:23;5.07;;;1.65;;
33501;SDS011;22396;51.070;4.974;2023-07-13T03:41:49;9.93;;;2.15;;
33501;SDS011;22396;51.070;4.974;2023-07-13T03:44:15;4.97;;;1.42;;
33501;SDS011;22396;51.070;4.974;2023-07-13T03:46:41;4.22;;;1.55;;
33501;SDS011;22396;51.070;4.974;2023-07-13T03:49:06;6.55;;;1.60;;
33501;SDS011;22396;51.070;4.974;2023-07-13T03:51:31;5.00;;;1.35;;
33501;SDS011;22396;51.070;4.974;2023-07-13T03:54:00;4.20;;;1.40;;
33501;SDS011;22396;51.070;4.974;2023-07-13T03:56:25;6.85;;;1.50;;
33501;SDS011;22396;51.070;4.974;2023-07-13T03:58:50;9.40;;;2.05;;
33501;SDS011;22396;51.070;4.974;2023-07-13T04:01:17;8.50;;;1.40;;
33501;SDS011;22396;51.070;4.974;2023-07-13T04:03:42;3.28;;;1.40;;
33501;SDS011;22396;51.070;4.974;2023-07-13T04:06:09;8.48;;;1.50;;
33501;SDS011;22396;51.070;4.974;2023-07-13T04:08:40;2.40;;;1.13;;
33501;SDS011;22396;51.070;4.974;2023-07-13T04:11:05;12.32;;;2.10;;
33501;SDS011;22396;51.070;4.974;2023-07-13T04:13:31;8.10;;;1.63;;
33501;SDS011;22396;51.070;4.974;2023-07-13T04:15:56;10.07;;;1.60;;
33501;SDS011;22396;51.070;4.974;2023-07-13T04:18:21;3.42;;;1.33;;
33501;SDS011;22396;51.070;4.974;2023-07-13T04:20:47;10.43;;;1.77;;
33501;SDS011;22396;51.070;4.974;2023-07-13T04:23:13;5.60;;;1.77;;
33501;SDS011;22396;51.070;4.974;2023-07-13T04:25:38;7.43;;;1.60;;
33501;SDS011;22396;51.070;4.974;2023-07-13T04:28:04;8.63;;;1.77;;
33501;SDS011;22396;51.070;4.974;2023-07-13T04:30:29;8.63;;;1.60;;
33501;SDS011;22396;51.070;4.974;2023-07-13T04:32:55;12.90;;;2.00;;
33501;SDS011;22396;51.070;4.974;2023-07-13T04:35:20;5.07;;;1.30;;
33501;SDS011;22396;51.070;4.974;2023-07-13T04:37:49;8.75;;;1.48;;
33501;SDS011;22396;51.070;4.974;2023-07-13T04:40:15;11.93;;;1.88;;
33501;SDS011;22396;51.070;4.974;2023-07-13T04:42:41;12.18;;;1.98;;
33501;SDS011;22396;51.070;4.974;2023-07-13T04:45:09;17.80;;;2.33;;
33501;SDS011;22396;51.070;4.974;2023-07-13T04:47:35;5.80;;;1.55;;
33501;SDS011;22396;51.070;4.974;2023-07-13T04:50:00;10.23;;;1.90;;
33501;SDS011;22396;51.070;4.974;2023-07-13T04:52:29;10.98;;;1.63;;
33501;SDS011;22396;51.070;4.974;2023-07-13T04:54:54;9.57;;;1.80;;
33501;SDS011;22396;51.070;4.974;2023-07-13T04:57:20;12.07;;;1.75;;
33501;SDS011;22396;51.070;4.974;2023-07-13T04:59:45;8.60;;;2.08;;
33501;SDS011;22396;51.070;4.974;2023-07-13T05:02:10;9.00;;;1.83;;
33501;SDS011;22396;51.070;4.974;2023-07-13T05:04:36;11.18;;;1.52;;
33501;SDS011;22396;51.070;4.974;2023-07-13T05:07:01;7.10;;;1.85;;
33501;SDS011;22396;51.070;4.974;2023-07-13T05:09:26;6.60;;;1.45;;
33501;SDS011;22396;51.070;4.974;2023-07-13T05:11:52;11.43;;;1.80;;
33501;SDS011;22396;51.070;4.974;2023-07-13T05:14:17;10.73;;;2.08;;
33501;SDS011;22396;51.070;4.974;2023-07-13T05:16:43;9.00;;;1.65;;
33501;SDS011;22396;51.070;4.974;2023-07-13T05:19:11;8.48;;;1.55;;
33501;SDS011;22396;51.070;4.974;2023-07-13T05:21:37;7.85;;;1.45;;
33501;SDS011;22396;51.070;4.974;2023-07-13T05:24:02;6.53;;;1.35;;
33501;SDS011;22396;51.070;4.974;2023-07-13T05:26:30;4.70;;;1.45;;
33501;SDS011;22396;51.070;4.974;2023-07-13T05:28:55;7.78;;;1.40;;
33501;SDS011;22396;51.070;4.974;2023-07-13T05:31:20;9.00;;;1.90;;
33501;SDS011;22396;51.070;4.974;2023-07-13T05:33:45;13.43;;;1.45;;
33501;SDS011;22396;51.070;4.974;2023-07-13T05:36:11;8.25;;;1.80;;
33501;SDS011;22396;51.070;4.974;2023-07-13T05:38:36;8.30;;;2.17;;
33501;SDS011;22396;51.070;4.974;2023-07-13T05:41:01;8.18;;;1.95;;
33501;SDS011;22396;51.070;4.974;2023-07-13T05:43:27;11.90;;;1.80;;
33501;SDS011;22396;51.070;4.974;2023-07-13T05:45:55;12.65;;;2.00;;
33501;SDS011;22396;51.070;4.974;2023-07-13T05:48:21;10.32;;;2.10;;
33501;SDS011;22396;51.070;4.974;2023-07-13T05:50:46;7.97;;;1.70;;
33501;SDS011;22396;51.070;4.974;2023-07-13T05:53:12;8.73;;;1.88;;
33501;SDS011;22396;51.070;4.974;2023-07-13T05:55:47;8.93;;;1.90;;
33501;SDS011;22396;51.070;4.974;2023-07-13T05:58:19;5.35;;;1.58;;
33501;SDS011;22396;51.070;4.974;2023-07-13T06:00:44;8.45;;;1.60;;
33501;SDS011;22396;51.070;4.974;2023-07-13T06:03:10;9.35;;;2.13;;
33501;SDS011;22396;51.070;4.974;2023-07-13T06:05:35;6.85;;;1.83;;
33501;SDS011;22396;51.070;4.974;2023-07-13T06:08:02;15.98;;;1.80;;
33501;SDS011;22396;51.070;4.974;2023-07-13T06:10:32;8.63;;;2.13;;
33501;SDS011;22396;51.070;4.974;2023-07-13T06:12:57;11.23;;;1.65;;
33501;SDS011;22396;51.070;4.974;2023-07-13T06:15:23;7.30;;;2.22;;
33501;SDS011;22396;51.070;4.974;2023-07-13T06:17:51;7.28;;;1.70;;
33501;SDS011;22396;51.070;4.974;2023-07-13T06:20:17;10.00;;;2.10;;
33501;SDS011;22396;51.070;4.974;2023-07-13T06:22:42;11.05;;;2.03;;
33501;SDS011;22396;51.070;4.974;2023-07-13T06:25:08;7.18;;;1.88;;
33501;SDS011;22396;51.070;4.974;2023-07-13T06:27:33;8.57;;;1.95;;
33501;SDS011;22396;51.070;4.974;2023-07-13T06:29:59;12.32;;;2.95;;
33501;SDS011;22396;51.070;4.974;2023-07-13T06:32:24;5.45;;;1.52;;
33501;SDS011;22396;51.070;4.974;2023-07-13T06:34:49;9.32;;;2.30;;
33501;SDS011;22396;51.070;4.974;2023-07-13T06:37:16;8.85;;;2.05;;
33501;SDS011;22396;51.070;4.974;2023-07-13T06:39:41;11.93;;;3.03;;
33501;SDS011;22396;51.070;4.974;2023-07-13T06:42:07;10.05;;;2.30;;
33501;SDS011;22396;51.070;4.974;2023-07-13T06:44:35;8.45;;;2.00;;
33501;SDS011;22396;51.070;4.974;2023-07-13T06:47:00;12.27;;;2.63;;
33501;SDS011;22396;51.070;4.974;2023-07-13T06:49:25;8.27;;;2.15;;
33501;SDS011;22396;51.070;4.974;2023-07-13T06:51:51;6.15;;;2.10;;
33501;SDS011;22396;51.070;4.974;2023-07-13T06:54:16;6.07;;;1.92;;
33501;SDS011;22396;51.070;4.974;2023-07-13T06:56:41;15.73;;;2.13;;
33501;SDS011;22396;51.070;4.974;2023-07-13T06:59:06;9.80;;;2.05;;
33501;SDS011;22396;51.070;4.974;2023-07-13T07:01:31;9.35;;;1.70;;
33501;SDS011;22396;51.070;4.974;2023-07-13T07:04:00;9.02;;;1.85;;
33501;SDS011;22396;51.070;4.974;2023-07-13T07:06:25;11.40;;;1.92;;
33501;SDS011;22396;51.070;4.974;2023-07-13T07:08:51;7.78;;;2.28;;
33501;SDS011;22396;51.070;4.974;2023-07-13T07:11:17;8.52;;;1.40;;
33501;SDS011;22396;51.070;4.974;2023-07-13T07:13:43;10.68;;;1.42;;
33501;SDS011;22396;51.070;4.974;2023-07-13T07:16:08;11.77;;;2.22;;
33501;SDS011;22396;51.070;4.974;2023-07-13T07:18:36;11.80;;;2.75;;
33501;SDS011;22396;51.070;4.974;2023-07-13T07:21:01;10.65;;;2.00;;
33501;SDS011;22396;51.070;4.974;2023-07-13T07:23:27;11.38;;;2.25;;
33501;SDS011;22396;51.070;4.974;2023-07-13T07:25:52;11.95;;;2.13;;
33501;SDS011;22396;51.070;4.974;2023-07-13T07:28:18;12.02;;;2.03;;
33501;SDS011;22396;51.070;4.974;2023-07-13T07:30:47;9.30;;;1.55;;
33501;SDS011;22396;51.070;4.974;2023-07-13T07:33:13;11.50;;;2.00;;
33501;SDS011;22396;51.070;4.974;2023-07-13T07:35:39;8.63;;;2.10;;
33501;SDS011;22396;51.070;4.974;2023-07-13T07:38:04;11.68;;;2.58;;
33501;SDS011;22396;51.070;4.974;2023-07-13T07:40:30;9.73;;;2.22;;
33501;SDS011;22396;51.070;4.974;2023-07-13T07:42:56;6.38;;;2.20;;
33501;SDS011;22396;51.070;4.974;2023-07-13T07:45:21;13.20;;;3.35;;
33501;SDS011;22396;51.070;4.974;2023-07-13T07:47:47;9.43;;;2.22;;
33501;SDS011;22396;51.070;4.974;2023-07-13T07:50:12;7.78;;;2.08;;
33501;SDS011;22396;51.070;4.974;2023-07-13T07:52:37;8.38;;;1.88;;
33501;SDS011;22396;51.070;4.974;2023-07-13T07:55:04;10.60;;;2.00;;
33501;SDS011;22396;51.070;4.974;2023-07-13T07:57:30;9.68;;;2.13;;
33501;SDS011;22396;51.070;4.974;2023-07-13T07:59:55;10.38;;;1.75;;
33501;SDS011;22396;51.070;4.974;2023-07-13T08:02:21;10.45;;;2.63;;
33501;SDS011;22396;51.070;4.974;2023-07-13T08:04:46;8.40;;;2.08;;
33501;SDS011;22396;51.070;4.974;2023-07-13T08:07:12;7.75;;;0.90;;
33501;SDS011;22396;51.070;4.974;2023-07-13T08:09:42;4.13;;;1.60;;
33501;SDS011;22396;51.070;4.974;2023-07-13T08:12:08;9.00;;;2.63;;
33501;SDS011;22396;51.070;4.974;2023-07-13T08:14:33;7.90;;;1.90;;
33501;SDS011;22396;51.070;4.974;2023-07-13T08:16:58;8.85;;;2.05;;
33501;SDS011;22396;51.070;4.974;2023-07-13T08:19:24;10.82;;;2.28;;
33501;SDS011;22396;51.070;4.974;2023-07-13T08:21:49;9.60;;;2.20;;
33501;SDS011;22396;51.070;4.974;2023-07-13T08:24:14;9.95;;;1.60;;
33501;SDS011;22396;51.070;4.974;2023-07-13T08:26:40;11.40;;;1.70;;
33501;SDS011;22396;51.070;4.974;2023-07-13T08:29:08;3.42;;;0.98;;
33501;SDS011;22396;51.070;4.974;2023-07-13T08:31:33;10.10;;;2.03;;
33501;SDS011;22396;51.070;4.974;2023-07-13T08:33:58;8.02;;;1.92;;
33501;SDS011;22396;51.070;4.974;2023-07-13T08:36:25;6.88;;;1.60;;
33501;SDS011;22396;51.070;4.974;2023-07-13T08:38:50;3.83;;;1.33;;
33501;SDS011;22396;51.070;4.974;2023-07-13T08:41:16;11.45;;;1.70;;
33501;SDS011;22396;51.070;4.974;2023-07-13T08:43:43;11.75;;;2.00;;
33501;SDS011;22396;51.070;4.974;2023-07-13T08:46:32;7.55;;;1.70;;
33501;SDS011;22396;51.070;4.974;2023-07-13T08:49:00;6.20;;;1.73;;
33501;SDS011;22396;51.070;4.974;2023-07-13T08:53:54;10.18;;;2.03;;
33501;SDS011;22396;51.070;4.974;2023-07-13T08:56:23;5.18;;;1.90;;
33501;SDS011;22396;51.070;4.974;2023-07-13T08:58:56;7.80;;;1.92;;
33501;SDS011;22396;51.070;4.974;2023-07-13T09:01:24;9.05;;;2.28;;
33501;SDS011;22396;51.070;4.974;2023-07-13T09:06:22;7.10;;;1.98;;
33501;SDS011;22396;51.070;4.974;2023-07-13T09:08:59;3.85;;;1.17;;
33501;SDS011;22396;51.070;4.974;2023-07-13T09:16:24;6.50;;;1.77;;
33501;SDS011;22396;51.070;4.974;2023-07-13T09:18:51;7.22;;;1.70;;
33501;SDS011;22396;51.070;4.974;2023-07-13T09:21:18;7.68;;;1.58;;
33501;SDS011;22396;51.070;4.974;2023-07-13T09:23:44;3.67;;;1.27;;
33501;SDS011;22396;51.070;4.974;2023-07-13T09:26:19;5.93;;;1.90;;
33501;SDS011;22396;51.070;4.974;2023-07-13T09:28:46;3.00;;;1.42;;
33501;SDS011;22396;51.070;4.974;2023-07-13T09:33:41;7.13;;;1.60;;
33501;SDS011;22396;51.070;4.974;2023-07-13T09:36:26;7.35;;;1.40;;
33501;SDS011;22396;51.070;4.974;2023-07-13T09:39:01;4.38;;;1.30;;
33501;SDS011;22396;51.070;4.974;2023-07-13T09:44:13;5.43;;;1.63;;
33501;SDS011;22396;51.070;4.974;2023-07-13T09:47:00;5.35;;;1.50;;
33501;SDS011;22396;51.070;4.974;2023-07-13T09:49:25;4.55;;;1.60;;
33501;SDS011;22396;51.070;4.974;2023-07-13T09:51:57;7.05;;;1.23;;
33501;SDS011;22396;51.070;4.974;2023-07-13T09:54:24;13.13;;;2.00;;
33501;SDS011;22396;51.070;4.974;2023-07-13T09:56:56;7.72;;;1.95;;
33501;SDS011;22396;51.070;4.974;2023-07-13T09:59:22;6.25;;;1.52;;
33501;SDS011;22396;51.070;4.974;2023-07-13T10:01:49;6.60;;;1.35;;
33501;SDS011;22396;51.070;4.974;2023-07-13T10:04:16;3.03;;;1.45;;
33501;SDS011;22396;51.070;4.974;2023-07-13T10:06:43;6.90;;;1.42;;
33501;SDS011;22396;51.070;4.974;2023-07-13T10:09:09;4.43;;;1.80;;
33501;SDS011;22396;51.070;4.974;2023-07-13T10:11:35;6.93;;;1.27;;
33501;SDS011;22396;51.070;4.974;2023-07-13T10:14:03;3.25;;;1.30;;
33501;SDS011;22396;51.070;4.974;2023-07-13T10:16:34;7.43;;;1.23;;
33501;SDS011;22396;51.070;4.974;2023-07-13T10:19:04;2.90;;;1.25;;
33501;SDS011;22396;51.070;4.974;2023-07-13T10:21:34;2.63;;;1.20;;
33501;SDS011;22396;51.070;4.974;2023-07-13T10:24:04;5.63;;;1.35;;
33501;SDS011;22396;51.070;4.974;2023-07-13T10:26:31;5.68;;;1.50;;
33501;SDS011;22396;51.070;4.974;2023-07-13T10:29:00;4.88;;;1.00;;
33501;SDS011;22396;51.070;4.974;2023-07-13T10:31:26;4.63;;;1.23;;
33501;SDS011;22396;51.070;4.974;2023-07-13T10:33:51;2.53;;;1.20;;
33501;SDS011;22396;51.070;4.974;2023-07-13T10:36:27;6.30;;;1.35;;
33501;SDS011;22396;51.070;4.974;2023-07-13T10:38:53;5.68;;;1.50;;
33501;SDS011;22396;51.070;4.974;2023-07-13T10:41:21;8.25;;;1.75;;
33501;SDS011;22396;51.070;4.974;2023-07-13T10:43:50;4.82;;;1.35;;
33501;SDS011;22396;51.070;4.974;2023-07-13T10:46:18;3.33;;;1.10;;
33501;SDS011;22396;51.070;4.974;2023-07-13T10:48:44;3.05;;;0.98;;
33501;SDS011;22396;51.070;4.974;2023-07-13T10:51:13;1.67;;;1.20;;
33501;SDS011;22396;51.070;4.974;2023-07-13T10:53:39;5.50;;;1.55;;
33501;SDS011;22396;51.070;4.974;2023-07-13T10:58:37;5.93;;;1.55;;
33501;SDS011;22396;51.070;4.974;2023-07-13T11:03:32;4.28;;;0.95;;
33501;SDS011;22396;51.070;4.974;2023-07-13T11:06:06;4.85;;;1.40;;
33501;SDS011;22396;51.070;4.974;2023-07-13T11:11:01;3.20;;;1.10;;
33501;SDS011;22396;51.070;4.974;2023-07-13T11:13:37;3.13;;;1.30;;
33501;SDS011;22396;51.070;4.974;2023-07-13T11:16:48;6.28;;;1.10;;
33501;SDS011;22396;51.070;4.974;2023-07-13T11:18:52;2.08;;;0.90;;
33501;SDS011;22396;51.070;4.974;2023-07-13T11:21:19;4.55;;;1.38;;
33501;SDS011;22396;51.070;4.974;2023-07-13T11:24:47;3.47;;;1.33;;
33501;SDS011;22396;51.070;4.974;2023-07-13T11:29:08;2.08;;;0.75;;
33501;SDS011;22396;51.070;4.974;2023-07-13T11:31:34;5.13;;;1.30;;
33501;SDS011;22396;51.070;4.974;2023-07-13T11:33:59;4.68;;;1.20;;
33501;SDS011;22396;51.070;4.974;2023-07-13T11:36:28;4.20;;;1.67;;
33501;SDS011;22396;51.070;4.974;2023-07-13T11:39:04;5.25;;;1.25;;
33501;SDS011;22396;51.070;4.974;2023-07-13T11:41:37;7.55;;;1.50;;
33501;SDS011;22396;51.070;4.974;2023-07-13T11:44:22;3.33;;;1.20;;
33501;SDS011;22396;51.070;4.974;2023-07-13T11:46:58;3.10;;;1.45;;
33501;SDS011;22396;51.070;4.974;2023-07-13T11:49:26;5.38;;;1.15;;
33501;SDS011;22396;51.070;4.974;2023-07-13T11:51:54;4.05;;;1.13;;
33501;SDS011;22396;51.070;4.974;2023-07-13T11:57:01;3.70;;;1.15;;
33501;SDS011;22396;51.070;4.974;2023-07-13T11:59:27;2.47;;;0.98;;
33501;SDS011;22396;51.070;4.974;2023-07-13T12:01:54;6.38;;;1.55;;
33501;SDS011;22396;51.070;4.974;2023-07-13T12:04:27;4.95;;;1.25;;
33501;SDS011;22396;51.070;4.974;2023-07-13T12:07:35;1.83;;;0.93;;
33501;SDS011;22396;51.070;4.974;2023-07-13T12:09:42;6.95;;;1.95;;
33501;SDS011;22396;51.070;4.974;2023-07-13T12:12:14;4.53;;;1.42;;
33501;SDS011;22396;51.070;4.974;2023-07-13T12:14:40;5.03;;;1.10;;
33501;SDS011;22396;51.070;4.974;2023-07-13T12:17:26;4.47;;;1.40;;
33501;SDS011;22396;51.070;4.974;2023-07-13T12:19:52;3.15;;;1.00;;
33501;SDS011;22396;51.070;4.974;2023-07-13T12:22:18;1.85;;;1.10;;
33501;SDS011;22396;51.070;4.974;2023-07-13T12:24:44;1.77;;;1.02;;
33501;SDS011;22396;51.070;4.974;2023-07-13T12:27:18;2.95;;;1.10;;
33501;SDS011;22396;51.070;4.974;2023-07-13T12:29:49;4.20;;;1.30;;
33501;SDS011;22396;51.070;4.974;2023-07-13T12:32:17;4.97;;;1.17;;
33501;SDS011;22396;51.070;4.974;2023-07-13T12:34:52;3.42;;;1.05;;
33501;SDS011;22396;51.070;4.974;2023-07-13T12:37:18;2.63;;;1.08;;
33501;SDS011;22396;51.070;4.974;2023-07-13T12:39:45;8.43;;;2.47;;
33501;SDS011;22396;51.070;4.974;2023-07-13T12:42:24;11.68;;;3.45;;
33501;SDS011;22396;51.070;4.974;2023-07-13T12:47:53;7.55;;;1.60;;
33501;SDS011;22396;51.070;4.974;2023-07-13T12:50:23;6.05;;;1.83;;
33501;SDS011;22396;51.070;4.974;2023-07-13T12:52:52;7.32;;;1.02;;
33501;SDS011;22396;51.070;4.974;2023-07-13T12:55:19;4.45;;;1.70;;
33501;SDS011;22396;51.070;4.974;2023-07-13T12:57:49;3.67;;;1.40;;
33501;SDS011;22396;51.070;4.974;2023-07-13T13:00:31;4.85;;;1.70;;
33501;SDS011;22396;51.070;4.974;2023-07-13T13:03:04;4.88;;;1.73;;
33501;SDS011;22396;51.070;4.974;2023-07-13T13:05:30;3.13;;;1.80;;
33501;SDS011;22396;51.070;4.974;2023-07-13T13:07:57;7.63;;;2.05;;
33501;SDS011;22396;51.070;4.974;2023-07-13T13:10:22;5.22;;;1.77;;
33501;SDS011;22396;51.070;4.974;2023-07-13T13:12:48;3.60;;;1.73;;
33501;SDS011;22396;51.070;4.974;2023-07-13T13:15:15;6.28;;;2.55;;
33501;SDS011;22396;51.070;4.974;2023-07-13T13:17:41;5.78;;;2.03;;
33501;SDS011;22396;51.070;4.974;2023-07-13T13:20:16;5.60;;;1.73;;
33501;SDS011;22396;51.070;4.974;2023-07-13T13:22:42;5.45;;;1.98;;
33501;SDS011;22396;51.070;4.974;2023-07-13T13:25:11;3.85;;;1.80;;
33501;SDS011;22396;51.070;4.974;2023-07-13T13:27:36;4.53;;;1.80;;
33501;SDS011;22396;51.070;4.974;2023-07-13T13:30:02;5.28;;;1.73;;
33501;SDS011;22396;51.070;4.974;2023-07-13T13:32:27;5.82;;;1.67;;
33501;SDS011;22396;51.070;4.974;2023-07-13T13:34:53;4.53;;;1.50;;
33501;SDS011;22396;51.070;4.974;2023-07-13T13:37:20;7.05;;;1.70;;
33501;SDS011;22396;51.070;4.974;2023-07-13T13:39:45;9.00;;;2.05;;
33501;SDS011;22396;51.070;4.974;2023-07-13T13:42:12;4.75;;;2.38;;
33501;SDS011;22396;51.070;4.974;2023-07-13T13:44:37;6.57;;;2.30;;
33501;SDS011;22396;51.070;4.974;2023-07-13T13:47:02;5.95;;;2.72;;
33501;SDS011;22396;51.070;4.974;2023-07-13T13:49:29;6.00;;;3.15;;
33501;SDS011;22396;51.070;4.974;2023-07-13T13:51:54;6.13;;;2.40;;
33501;SDS011;22396;51.070;4.974;2023-07-13T13:54:20;3.92;;;2.35;;
33501;SDS011;22396;51.070;4.974;2023-07-13T13:56:50;8.48;;;1.90;;
33501;SDS011;22396;51.070;4.974;2023-07-13T13:59:16;4.00;;;1.95;;
33501;SDS011;22396;51.070;4.974;2023-07-13T14:01:44;5.22;;;1.90;;
33501;SDS011;22396;51.070;4.974;2023-07-13T14:04:13;4.93;;;2.00;;
33501;SDS011;22396;51.070;4.974;2023-07-13T14:06:39;4.53;;;1.75;;
33501;SDS011;22396;51.070;4.974;2023-07-13T14:09:08;3.03;;;1.77;;
33501;SDS011;22396;51.070;4.974;2023-07-13T14:11:35;6.97;;;2.35;;
33501;SDS011;22396;51.070;4.974;2023-07-13T14:14:01;4.28;;;1.60;;
33501;SDS011;22396;51.070;4.974;2023-07-13T14:16:29;3.10;;;1.50;;
33501;SDS011;22396;51.070;4.974;2023-07-13T14:18:56;4.13;;;2.00;;
33501;SDS011;22396;51.070;4.974;2023-07-13T14:21:25;5.55;;;1.70;;
33501;SDS011;22396;51.070;4.974;2023-07-13T14:23:51;5.50;;;1.88;;
33501;SDS011;22396;51.070;4.974;2023-07-13T14:26:17;4.18;;;1.80;;
33501;SDS011;22396;51.070;4.974;2023-07-13T14:28:43;5.13;;;1.80;;
33501;SDS011;22396;51.070;4.974;2023-07-13T14:31:09;3.33;;;1.55;;
33501;SDS011;22396;51.070;4.974;2023-07-13T14:33:35;6.00;;;2.00;;
33501;SDS011;22396;51.070;4.974;2023-07-13T14:36:03;6.40;;;1.65;;
33501;SDS011;22396;51.070;4.974;2023-07-13T14:38:33;3.55;;;1.80;;
33501;SDS011;22396;51.070;4.974;2023-07-13T14:40:58;4.45;;;1.90;;
33501;SDS011;22396;51.070;4.974;2023-07-13T14:43:25;3.25;;;1.50;;
33501;SDS011;22396;51.070;4.974;2023-07-13T14:45:53;1.92;;;1.27;;
33501;SDS011;22396;51.070;4.974;2023-07-13T14:48:21;5.65;;;1.67;;
33501;SDS011;22396;51.070;4.974;2023-07-13T14:50:54;3.05;;;1.80;;
33501;SDS011;22396;51.070;4.974;2023-07-13T14:53:20;3.47;;;1.25;;
33501;SDS011;22396;51.070;4.974;2023-07-13T14:55:46;1.95;;;1.20;;
33501;SDS011;22396;51.070;4.974;2023-07-13T14:58:11;4.35;;;1.42;;
33501;SDS011;22396;51.070;4.974;2023-07-13T15:00:36;6.10;;;1.52;;
33501;SDS011;22396;51.070;4.974;2023-07-13T15:03:02;3.75;;;1.27;;
33501;SDS011;22396;51.070;4.974;2023-07-13T15:05:30;3.40;;;1.27;;
33501;SDS011;22396;51.070;4.974;2023-07-13T15:07:59;4.78;;;1.63;;
33501;SDS011;22396;51.070;4.974;2023-07-13T15:10:26;3.83;;;1.20;;
33501;SDS011;22396;51.070;4.974;2023-07-13T15:12:52;3.47;;;1.50;;
33501;SDS011;22396;51.070;4.974;2023-07-13T15:15:18;3.85;;;1.33;;
33501;SDS011;22396;51.070;4.974;2023-07-13T15:17:44;2.10;;;1.05;;
33501;SDS011;22396;51.070;4.974;2023-07-13T15:20:21;2.38;;;1.13;;
33501;SDS011;22396;51.070;4.974;2023-07-13T15:22:47;3.92;;;1.45;;